sensor_id;sensor_type;location;lat;lon;timestamp;P1;durP1;ratioP1;P2;durP2;ratioP2
55172;SDS011;41061;52.822;6.860;2023-08-30T00:01:35;10.32;;;8.98;;
55172;SDS011;41061;52.822;6.860;2023-08-30T00:04:00;10.10;;;9.05;;
55172;SDS011;41061;52.822;6.860;2023-08-30T00:06:26;11.60;;;9.63;;
55172;SDS011;41061;52.822;6.860;2023-08-30T00:08:52;11.95;;;9.52;;
55172;SDS011;41061;52.822;6.860;2023-08-30T00:11:18;11.82;;;10.32;;
55172;SDS011;41061;52.822;6.860;2023-08-30T00:13:43;11.00;;;9.90;;
55172;SDS011;41061;52.822;6.860;2023-08-30T00:16:09;11.38;;;9.85;;
55172;SDS011;41061;52.822;6.860;2023-08-30T00:18:35;11.82;;;10.63;;
55172;SDS011;41061;52.822;6.860;2023-08-30T00:21:01;10.93;;;9.90;;
55172;SDS011;41061;52.822;6.860;2023-08-30T00:23:26;11.35;;;9.30;;
55172;SDS011;41061;52.822;6.860;2023-08-30T00:25:52;12.50;;;9.90;;
55172;SDS011;41061;52.822;6.860;2023-08-30T00:28:18;12.60;;;10.30;;
55172;SDS011;41061;52.822;6.860;2023-08-30T00:30:43;12.07;;;9.90;;
55172;SDS011;41061;52.822;6.860;2023-08-30T00:33:09;13.23;;;10.05;;
55172;SDS011;41061;52.822;6.860;2023-08-30T00:35:35;12.45;;;9.57;;
55172;SDS011;41061;52.822;6.860;2023-08-30T00:38:01;13.18;;;10.25;;
55172;SDS011;41061;52.822;6.860;2023-08-30T00:40:28;10.93;;;9.40;;
55172;SDS011;41061;52.822;6.860;2023-08-30T00:42:54;11.13;;;9.93;;
55172;SDS011;41061;52.822;6.860;2023-08-30T00:45:19;11.45;;;9.60;;
55172;SDS011;41061;52.822;6.860;2023-08-30T00:47:45;11.55;;;9.13;;
55172;SDS011;41061;52.822;6.860;2023-08-30T00:50:11;10.50;;;9.40;;
55172;SDS011;41061;52.822;6.860;2023-08-30T00:52:38;10.68;;;9.32;;
55172;SDS011;41061;52.822;6.860;2023-08-30T00:55:04;10.80;;;9.70;;
55172;SDS011;41061;52.822;6.860;2023-08-30T00:57:30;10.93;;;9.38;;
55172;SDS011;41061;52.822;6.860;2023-08-30T00:59:56;10.50;;;9.45;;
55172;SDS011;41061;52.822;6.860;2023-08-30T01:02:23;12.20;;;10.10;;
55172;SDS011;41061;52.822;6.860;2023-08-30T01:04:49;11.95;;;10.25;;
55172;SDS011;41061;52.822;6.860;2023-08-30T01:07:14;12.27;;;9.88;;
55172;SDS011;41061;52.822;6.860;2023-08-30T01:09:40;11.88;;;9.52;;
55172;SDS011;41061;52.822;6.860;2023-08-30T01:14:39;10.77;;;9.00;;
55172;SDS011;41061;52.822;6.860;2023-08-30T01:17:10;15.63;;;9.70;;
55172;SDS011;41061;52.822;6.860;2023-08-30T01:22:14;10.88;;;9.48;;
55172;SDS011;41061;52.822;6.860;2023-08-30T01:27:45;10.95;;;9.10;;
55172;SDS011;41061;52.822;6.860;2023-08-30T01:30:13;12.38;;;9.13;;
55172;SDS011;41061;52.822;6.860;2023-08-30T01:32:40;13.88;;;10.13;;
55172;SDS011;41061;52.822;6.860;2023-08-30T01:35:07;11.05;;;9.27;;
55172;SDS011;41061;52.822;6.860;2023-08-30T01:37:33;10.55;;;9.23;;
55172;SDS011;41061;52.822;6.860;2023-08-30T01:40:00;11.85;;;9.40;;
55172;SDS011;41061;52.822;6.860;2023-08-30T01:42:29;10.85;;;9.27;;
55172;SDS011;41061;52.822;6.860;2023-08-30T01:44:56;10.35;;;9.10;;
55172;SDS011;41061;52.822;6.860;2023-08-30T01:47:26;15.38;;;9.68;;
55172;SDS011;41061;52.822;6.860;2023-08-30T01:49:53;11.07;;;9.27;;
55172;SDS011;41061;52.822;6.860;2023-08-30T01:52:21;15.27;;;10.07;;
55172;SDS011;41061;52.822;6.860;2023-08-30T01:54:48;10.90;;;9.80;;
55172;SDS011;41061;52.822;6.860;2023-08-30T01:57:16;13.02;;;9.95;;
55172;SDS011;41061;52.822;6.860;2023-08-30T01:59:41;11.65;;;9.30;;
55172;SDS011;41061;52.822;6.860;2023-08-30T02:02:07;11.80;;;9.75;;
55172;SDS011;41061;52.822;6.860;2023-08-30T02:04:33;11.57;;;10.10;;
55172;SDS011;41061;52.822;6.860;2023-08-30T02:07:02;11.57;;;10.23;;
55172;SDS011;41061;52.822;6.860;2023-08-30T02:12:23;12.63;;;10.80;;
55172;SDS011;41061;52.822;6.860;2023-08-30T02:14:52;9.85;;;8.82;;
55172;SDS011;41061;52.822;6.860;2023-08-30T02:17:18;11.27;;;9.20;;
55172;SDS011;41061;52.822;6.860;2023-08-30T02:19:44;9.55;;;8.55;;
55172;SDS011;41061;52.822;6.860;2023-08-30T02:22:11;13.02;;;9.15;;
55172;SDS011;41061;52.822;6.860;2023-08-30T02:24:37;9.98;;;8.95;;
55172;SDS011;41061;52.822;6.860;2023-08-30T02:27:03;10.88;;;9.48;;
55172;SDS011;41061;52.822;6.860;2023-08-30T02:29:29;11.60;;;9.65;;
55172;SDS011;41061;52.822;6.860;2023-08-30T02:31:54;11.82;;;9.93;;
55172;SDS011;41061;52.822;6.860;2023-08-30T02:34:20;12.48;;;9.25;;
55172;SDS011;41061;52.822;6.860;2023-08-30T02:36:46;12.52;;;9.30;;
55172;SDS011;41061;52.822;6.860;2023-08-30T02:39:13;11.25;;;9.85;;
55172;SDS011;41061;52.822;6.860;2023-08-30T02:41:39;11.57;;;9.15;;
55172;SDS011;41061;52.822;6.860;2023-08-30T02:44:07;13.13;;;9.60;;
55172;SDS011;41061;52.822;6.860;2023-08-30T02:46:33;13.15;;;9.68;;
55172;SDS011;41061;52.822;6.860;2023-08-30T02:48:59;9.70;;;8.63;;
55172;SDS011;41061;52.822;6.860;2023-08-30T02:51:25;11.57;;;9.90;;
55172;SDS011;41061;52.822;6.860;2023-08-30T02:53:50;12.68;;;9.70;;
55172;SDS011;41061;52.822;6.860;2023-08-30T02:56:16;14.85;;;9.73;;
55172;SDS011;41061;52.822;6.860;2023-08-30T02:58:42;11.20;;;10.07;;
55172;SDS011;41061;52.822;6.860;2023-08-30T03:01:07;11.95;;;10.07;;
55172;SDS011;41061;52.822;6.860;2023-08-30T03:03:33;18.88;;;10.77;;
55172;SDS011;41061;52.822;6.860;2023-08-30T03:06:00;12.98;;;11.65;;
55172;SDS011;41061;52.822;6.860;2023-08-30T03:08:28;14.32;;;11.23;;
55172;SDS011;41061;52.822;6.860;2023-08-30T03:10:54;11.68;;;10.48;;
55172;SDS011;41061;52.822;6.860;2023-08-30T03:13:19;12.68;;;10.95;;
55172;SDS011;41061;52.822;6.860;2023-08-30T03:15:45;12.27;;;9.80;;
55172;SDS011;41061;52.822;6.860;2023-08-30T03:18:11;15.05;;;9.85;;
55172;SDS011;41061;52.822;6.860;2023-08-30T03:20:36;15.57;;;10.93;;
55172;SDS011;41061;52.822;6.860;2023-08-30T03:23:02;13.25;;;10.57;;
55172;SDS011;41061;52.822;6.860;2023-08-30T03:25:28;11.65;;;10.45;;
55172;SDS011;41061;52.822;6.860;2023-08-30T03:27:55;14.57;;;11.13;;
55172;SDS011;41061;52.822;6.860;2023-08-30T03:30:21;16.73;;;11.32;;
55172;SDS011;41061;52.822;6.860;2023-08-30T03:32:46;13.50;;;11.20;;
55172;SDS011;41061;52.822;6.860;2023-08-30T03:35:12;13.65;;;12.25;;
55172;SDS011;41061;52.822;6.860;2023-08-30T03:37:40;15.57;;;12.00;;
55172;SDS011;41061;52.822;6.860;2023-08-30T03:40:05;18.67;;;13.35;;
55172;SDS011;41061;52.822;6.860;2023-08-30T03:42:32;15.80;;;12.88;;
55172;SDS011;41061;52.822;6.860;2023-08-30T03:44:58;15.70;;;13.15;;
55172;SDS011;41061;52.822;6.860;2023-08-30T03:47:24;15.82;;;12.80;;
55172;SDS011;41061;52.822;6.860;2023-08-30T03:49:49;16.05;;;12.75;;
55172;SDS011;41061;52.822;6.860;2023-08-30T03:52:15;18.08;;;13.05;;
55172;SDS011;41061;52.822;6.860;2023-08-30T03:54:41;20.00;;;14.00;;
55172;SDS011;41061;52.822;6.860;2023-08-30T03:57:06;19.02;;;12.88;;
55172;SDS011;41061;52.822;6.860;2023-08-30T03:59:32;19.33;;;12.80;;
55172;SDS011;41061;52.822;6.860;2023-08-30T04:01:58;17.98;;;12.60;;
55172;SDS011;41061;52.822;6.860;2023-08-30T04:04:24;23.27;;;13.93;;
55172;SDS011;41061;52.822;6.860;2023-08-30T04:06:49;16.80;;;12.18;;
55172;SDS011;41061;52.822;6.860;2023-08-30T04:09:15;15.88;;;12.95;;
55172;SDS011;41061;52.822;6.860;2023-08-30T04:11:42;13.85;;;11.90;;
55172;SDS011;41061;52.822;6.860;2023-08-30T04:14:08;16.27;;;11.75;;
55172;SDS011;41061;52.822;6.860;2023-08-30T04:16:35;13.02;;;11.63;;
55172;SDS011;41061;52.822;6.860;2023-08-30T04:19:01;14.27;;;11.68;;
55172;SDS011;41061;52.822;6.860;2023-08-30T04:21:26;17.73;;;13.05;;
55172;SDS011;41061;52.822;6.860;2023-08-30T04:23:52;16.05;;;13.10;;
55172;SDS011;41061;52.822;6.860;2023-08-30T04:26:18;15.35;;;12.63;;
55172;SDS011;41061;52.822;6.860;2023-08-30T04:28:43;19.17;;;14.40;;
55172;SDS011;41061;52.822;6.860;2023-08-30T04:31:10;17.75;;;13.70;;
55172;SDS011;41061;52.822;6.860;2023-08-30T04:33:35;18.90;;;13.70;;
55172;SDS011;41061;52.822;6.860;2023-08-30T04:36:01;16.42;;;13.43;;
55172;SDS011;41061;52.822;6.860;2023-08-30T04:38:29;15.27;;;12.55;;
55172;SDS011;41061;52.822;6.860;2023-08-30T04:40:58;17.15;;;13.20;;
55172;SDS011;41061;52.822;6.860;2023-08-30T04:43:27;17.83;;;13.80;;
55172;SDS011;41061;52.822;6.860;2023-08-30T04:45:53;15.18;;;13.10;;
55172;SDS011;41061;52.822;6.860;2023-08-30T04:48:19;15.40;;;13.77;;
55172;SDS011;41061;52.822;6.860;2023-08-30T04:50:45;17.48;;;13.90;;
55172;SDS011;41061;52.822;6.860;2023-08-30T04:53:10;17.00;;;13.45;;
55172;SDS011;41061;52.822;6.860;2023-08-30T04:55:36;16.92;;;13.35;;
55172;SDS011;41061;52.822;6.860;2023-08-30T04:58:02;16.55;;;13.25;;
55172;SDS011;41061;52.822;6.860;2023-08-30T05:00:28;18.63;;;13.05;;
55172;SDS011;41061;52.822;6.860;2023-08-30T05:02:53;18.75;;;13.40;;
55172;SDS011;41061;52.822;6.860;2023-08-30T05:05:19;17.20;;;12.95;;
55172;SDS011;41061;52.822;6.860;2023-08-30T05:07:45;18.60;;;13.40;;
55172;SDS011;41061;52.822;6.860;2023-08-30T05:10:11;14.93;;;13.07;;
55172;SDS011;41061;52.822;6.860;2023-08-30T05:12:37;16.63;;;13.73;;
55172;SDS011;41061;52.822;6.860;2023-08-30T05:15:03;18.85;;;12.57;;
55172;SDS011;41061;52.822;6.860;2023-08-30T05:17:29;17.17;;;13.55;;
55172;SDS011;41061;52.822;6.860;2023-08-30T05:19:56;19.00;;;12.73;;
55172;SDS011;41061;52.822;6.860;2023-08-30T05:22:22;17.42;;;13.60;;
55172;SDS011;41061;52.822;6.860;2023-08-30T05:24:48;14.88;;;12.35;;
55172;SDS011;41061;52.822;6.860;2023-08-30T05:27:13;16.67;;;12.57;;
55172;SDS011;41061;52.822;6.860;2023-08-30T05:29:40;17.15;;;13.25;;
55172;SDS011;41061;52.822;6.860;2023-08-30T05:32:05;16.10;;;12.15;;
55172;SDS011;41061;52.822;6.860;2023-08-30T05:34:31;15.40;;;13.07;;
55172;SDS011;41061;52.822;6.860;2023-08-30T05:36:57;15.82;;;12.90;;
55172;SDS011;41061;52.822;6.860;2023-08-30T05:39:23;15.68;;;13.23;;
55172;SDS011;41061;52.822;6.860;2023-08-30T05:41:49;15.80;;;13.77;;
55172;SDS011;41061;52.822;6.860;2023-08-30T05:44:14;16.98;;;12.90;;
55172;SDS011;41061;52.822;6.860;2023-08-30T05:46:40;17.30;;;13.07;;
55172;SDS011;41061;52.822;6.860;2023-08-30T05:49:06;15.95;;;13.65;;
55172;SDS011;41061;52.822;6.860;2023-08-30T05:51:31;17.00;;;13.25;;
55172;SDS011;41061;52.822;6.860;2023-08-30T05:53:57;17.83;;;12.55;;
55172;SDS011;41061;52.822;6.860;2023-08-30T05:56:23;16.90;;;13.38;;
55172;SDS011;41061;52.822;6.860;2023-08-30T05:58:49;16.13;;;12.90;;
55172;SDS011;41061;52.822;6.860;2023-08-30T06:01:17;17.48;;;12.38;;
55172;SDS011;41061;52.822;6.860;2023-08-30T06:03:44;14.38;;;12.35;;
55172;SDS011;41061;52.822;6.860;2023-08-30T06:06:11;14.60;;;12.98;;
55172;SDS011;41061;52.822;6.860;2023-08-30T06:08:36;21.55;;;13.88;;
55172;SDS011;41061;52.822;6.860;2023-08-30T06:11:02;15.18;;;11.85;;
55172;SDS011;41061;52.822;6.860;2023-08-30T06:13:28;15.57;;;12.82;;
55172;SDS011;41061;52.822;6.860;2023-08-30T06:15:53;17.92;;;13.45;;
55172;SDS011;41061;52.822;6.860;2023-08-30T06:18:19;15.15;;;12.95;;
55172;SDS011;41061;52.822;6.860;2023-08-30T06:20:45;16.98;;;14.07;;
55172;SDS011;41061;52.822;6.860;2023-08-30T06:23:12;17.40;;;14.02;;
55172;SDS011;41061;52.822;6.860;2023-08-30T06:25:39;16.85;;;13.50;;
55172;SDS011;41061;52.822;6.860;2023-08-30T06:28:05;18.40;;;13.73;;
55172;SDS011;41061;52.822;6.860;2023-08-30T06:30:31;18.08;;;14.55;;
55172;SDS011;41061;52.822;6.860;2023-08-30T06:32:56;17.83;;;13.38;;
55172;SDS011;41061;52.822;6.860;2023-08-30T06:35:23;17.55;;;13.75;;
55172;SDS011;41061;52.822;6.860;2023-08-30T06:37:49;19.95;;;13.20;;
55172;SDS011;41061;52.822;6.860;2023-08-30T06:40:15;16.02;;;13.38;;
55172;SDS011;41061;52.822;6.860;2023-08-30T06:42:40;20.65;;;13.55;;
55172;SDS011;41061;52.822;6.860;2023-08-30T06:45:06;21.65;;;14.15;;
55172;SDS011;41061;52.822;6.860;2023-08-30T06:47:32;20.65;;;14.15;;
55172;SDS011;41061;52.822;6.860;2023-08-30T06:49:58;16.70;;;13.73;;
55172;SDS011;41061;52.822;6.860;2023-08-30T06:52:25;18.23;;;14.43;;
55172;SDS011;41061;52.822;6.860;2023-08-30T06:54:51;20.95;;;14.57;;
55172;SDS011;41061;52.822;6.860;2023-08-30T06:57:17;19.25;;;14.85;;
55172;SDS011;41061;52.822;6.860;2023-08-30T06:59:42;16.67;;;13.65;;
55172;SDS011;41061;52.822;6.860;2023-08-30T07:02:08;17.17;;;14.00;;
55172;SDS011;41061;52.822;6.860;2023-08-30T07:04:35;17.63;;;14.88;;
55172;SDS011;41061;52.822;6.860;2023-08-30T07:07:00;18.75;;;14.02;;
55172;SDS011;41061;52.822;6.860;2023-08-30T07:09:26;17.67;;;14.32;;
55172;SDS011;41061;52.822;6.860;2023-08-30T07:11:57;19.65;;;14.20;;
55172;SDS011;41061;52.822;6.860;2023-08-30T07:14:23;18.33;;;14.07;;
55172;SDS011;41061;52.822;6.860;2023-08-30T07:16:49;18.02;;;13.68;;
55172;SDS011;41061;52.822;6.860;2023-08-30T07:19:16;17.88;;;13.48;;
55172;SDS011;41061;52.822;6.860;2023-08-30T07:21:44;18.10;;;13.70;;
55172;SDS011;41061;52.822;6.860;2023-08-30T07:24:10;19.73;;;14.13;;
55172;SDS011;41061;52.822;6.860;2023-08-30T07:26:36;17.15;;;13.00;;
55172;SDS011;41061;52.822;6.860;2023-08-30T07:29:02;16.75;;;13.88;;
55172;SDS011;41061;52.822;6.860;2023-08-30T07:31:31;18.75;;;14.02;;
55172;SDS011;41061;52.822;6.860;2023-08-30T07:33:57;14.82;;;12.70;;
55172;SDS011;41061;52.822;6.860;2023-08-30T07:36:25;16.63;;;12.75;;
55172;SDS011;41061;52.822;6.860;2023-08-30T07:38:51;17.67;;;13.15;;
55172;SDS011;41061;52.822;6.860;2023-08-30T07:41:17;18.92;;;13.10;;
55172;SDS011;41061;52.822;6.860;2023-08-30T07:43:43;16.58;;;12.85;;
55172;SDS011;41061;52.822;6.860;2023-08-30T07:46:08;15.32;;;12.95;;
55172;SDS011;41061;52.822;6.860;2023-08-30T07:48:34;19.55;;;12.98;;
55172;SDS011;41061;52.822;6.860;2023-08-30T07:51:00;18.35;;;13.05;;
55172;SDS011;41061;52.822;6.860;2023-08-30T07:53:26;17.73;;;12.77;;
55172;SDS011;41061;52.822;6.860;2023-08-30T07:55:51;18.33;;;13.40;;
55172;SDS011;41061;52.822;6.860;2023-08-30T07:58:17;17.73;;;13.30;;
55172;SDS011;41061;52.822;6.860;2023-08-30T08:00:43;15.27;;;12.63;;
55172;SDS011;41061;52.822;6.860;2023-08-30T08:03:09;18.00;;;13.18;;
55172;SDS011;41061;52.822;6.860;2023-08-30T08:05:35;17.30;;;13.70;;
55172;SDS011;41061;52.822;6.860;2023-08-30T08:08:02;16.90;;;12.50;;
55172;SDS011;41061;52.822;6.860;2023-08-30T08:10:32;19.48;;;12.55;;
55172;SDS011;41061;52.822;6.860;2023-08-30T08:13:01;16.65;;;13.00;;
55172;SDS011;41061;52.822;6.860;2023-08-30T08:15:29;15.65;;;12.38;;
55172;SDS011;41061;52.822;6.860;2023-08-30T08:17:59;17.67;;;13.13;;
55172;SDS011;41061;52.822;6.860;2023-08-30T08:20:25;15.07;;;11.98;;
55172;SDS011;41061;52.822;6.860;2023-08-30T08:22:51;16.67;;;11.55;;
55172;SDS011;41061;52.822;6.860;2023-08-30T08:25:18;16.60;;;12.60;;
55172;SDS011;41061;52.822;6.860;2023-08-30T08:27:45;14.68;;;11.25;;
55172;SDS011;41061;52.822;6.860;2023-08-30T08:30:11;16.67;;;12.35;;
55172;SDS011;41061;52.822;6.860;2023-08-30T08:32:37;17.23;;;12.52;;
55172;SDS011;41061;52.822;6.860;2023-08-30T08:35:03;13.25;;;11.30;;
55172;SDS011;41061;52.822;6.860;2023-08-30T08:37:30;14.10;;;11.75;;
55172;SDS011;41061;52.822;6.860;2023-08-30T08:39:57;14.93;;;11.02;;
55172;SDS011;41061;52.822;6.860;2023-08-30T08:42:23;16.98;;;11.63;;
55172;SDS011;41061;52.822;6.860;2023-08-30T08:44:51;15.70;;;11.98;;
55172;SDS011;41061;52.822;6.860;2023-08-30T08:47:20;16.50;;;12.48;;
55172;SDS011;41061;52.822;6.860;2023-08-30T08:49:49;17.02;;;11.50;;
55172;SDS011;41061;52.822;6.860;2023-08-30T08:52:16;15.20;;;11.43;;
55172;SDS011;41061;52.822;6.860;2023-08-30T08:54:42;14.35;;;12.40;;
55172;SDS011;41061;52.822;6.860;2023-08-30T08:57:08;14.52;;;11.50;;
55172;SDS011;41061;52.822;6.860;2023-08-30T08:59:34;14.80;;;11.30;;
55172;SDS011;41061;52.822;6.860;2023-08-30T09:02:01;13.68;;;11.32;;
55172;SDS011;41061;52.822;6.860;2023-08-30T09:04:28;16.30;;;11.38;;
55172;SDS011;41061;52.822;6.860;2023-08-30T09:06:56;17.10;;;11.85;;
55172;SDS011;41061;52.822;6.860;2023-08-30T09:09:23;15.35;;;11.00;;
55172;SDS011;41061;52.822;6.860;2023-08-30T09:11:49;15.45;;;11.02;;
55172;SDS011;41061;52.822;6.860;2023-08-30T09:14:21;15.60;;;10.70;;
55172;SDS011;41061;52.822;6.860;2023-08-30T09:16:56;15.52;;;11.35;;
55172;SDS011;41061;52.822;6.860;2023-08-30T09:19:22;19.88;;;10.68;;
55172;SDS011;41061;52.822;6.860;2023-08-30T09:21:52;14.20;;;10.50;;
55172;SDS011;41061;52.822;6.860;2023-08-30T09:24:19;14.65;;;11.15;;
55172;SDS011;41061;52.822;6.860;2023-08-30T09:26:48;13.27;;;10.90;;
55172;SDS011;41061;52.822;6.860;2023-08-30T09:29:16;12.68;;;10.90;;
55172;SDS011;41061;52.822;6.860;2023-08-30T09:31:43;15.30;;;10.95;;
55172;SDS011;41061;52.822;6.860;2023-08-30T09:34:09;17.02;;;12.15;;
55172;SDS011;41061;52.822;6.860;2023-08-30T09:36:39;15.05;;;10.50;;
55172;SDS011;41061;52.822;6.860;2023-08-30T09:39:13;14.27;;;11.40;;
55172;SDS011;41061;52.822;6.860;2023-08-30T09:41:47;15.55;;;11.30;;
55172;SDS011;41061;52.822;6.860;2023-08-30T09:44:16;16.38;;;10.93;;
55172;SDS011;41061;52.822;6.860;2023-08-30T09:46:46;14.15;;;10.35;;
55172;SDS011;41061;52.822;6.860;2023-08-30T09:49:18;15.98;;;11.38;;
55172;SDS011;41061;52.822;6.860;2023-08-30T09:51:46;14.73;;;11.30;;
55172;SDS011;41061;52.822;6.860;2023-08-30T09:54:16;19.20;;;10.57;;
55172;SDS011;41061;52.822;6.860;2023-08-30T09:56:44;18.63;;;11.13;;
55172;SDS011;41061;52.822;6.860;2023-08-30T09:59:10;18.27;;;11.93;;
55172;SDS011;41061;52.822;6.860;2023-08-30T10:01:37;14.77;;;11.25;;
55172;SDS011;41061;52.822;6.860;2023-08-30T10:04:04;14.25;;;11.35;;
55172;SDS011;41061;52.822;6.860;2023-08-30T10:06:33;17.60;;;12.00;;
55172;SDS011;41061;52.822;6.860;2023-08-30T10:09:03;12.38;;;11.07;;
55172;SDS011;41061;52.822;6.860;2023-08-30T10:11:33;15.45;;;11.73;;
55172;SDS011;41061;52.822;6.860;2023-08-30T10:14:06;14.45;;;11.27;;
55172;SDS011;41061;52.822;6.860;2023-08-30T10:16:45;15.95;;;11.45;;
55172;SDS011;41061;52.822;6.860;2023-08-30T10:21:38;12.68;;;9.80;;
55172;SDS011;41061;52.822;6.860;2023-08-30T10:24:05;12.50;;;9.18;;
55172;SDS011;41061;52.822;6.860;2023-08-30T10:26:34;16.95;;;9.13;;
55172;SDS011;41061;52.822;6.860;2023-08-30T10:29:00;12.27;;;9.43;;
55172;SDS011;41061;52.822;6.860;2023-08-30T10:31:28;17.38;;;10.40;;
55172;SDS011;41061;52.822;6.860;2023-08-30T10:33:54;15.82;;;10.50;;
55172;SDS011;41061;52.822;6.860;2023-08-30T10:36:24;14.20;;;10.38;;
55172;SDS011;41061;52.822;6.860;2023-08-30T10:38:51;12.77;;;10.27;;
55172;SDS011;41061;52.822;6.860;2023-08-30T10:41:24;13.52;;;9.63;;
55172;SDS011;41061;52.822;6.860;2023-08-30T10:44:00;12.63;;;9.88;;
55172;SDS011;41061;52.822;6.860;2023-08-30T10:46:37;11.50;;;8.68;;
55172;SDS011;41061;52.822;6.860;2023-08-30T10:49:12;9.40;;;8.00;;
55172;SDS011;41061;52.822;6.860;2023-08-30T10:51:41;9.80;;;7.05;;
55172;SDS011;41061;52.822;6.860;2023-08-30T10:54:13;10.15;;;7.63;;
55172;SDS011;41061;52.822;6.860;2023-08-30T10:56:48;12.15;;;8.95;;
55172;SDS011;41061;52.822;6.860;2023-08-30T11:01:46;11.23;;;8.50;;
55172;SDS011;41061;52.822;6.860;2023-08-30T11:04:14;9.02;;;7.40;;
55172;SDS011;41061;52.822;6.860;2023-08-30T11:06:45;10.63;;;8.38;;
55172;SDS011;41061;52.822;6.860;2023-08-30T11:09:15;11.02;;;8.18;;
55172;SDS011;41061;52.822;6.860;2023-08-30T11:11:43;9.15;;;8.02;;
55172;SDS011;41061;52.822;6.860;2023-08-30T11:14:10;10.30;;;8.02;;
55172;SDS011;41061;52.822;6.860;2023-08-30T11:16:36;10.02;;;7.75;;
55172;SDS011;41061;52.822;6.860;2023-08-30T11:19:03;10.88;;;8.30;;
55172;SDS011;41061;52.822;6.860;2023-08-30T11:21:47;8.52;;;7.63;;
55172;SDS011;41061;52.822;6.860;2023-08-30T11:24:13;10.57;;;8.65;;
55172;SDS011;41061;52.822;6.860;2023-08-30T11:26:40;10.73;;;8.65;;
55172;SDS011;41061;52.822;6.860;2023-08-30T11:29:09;12.43;;;8.85;;
55172;SDS011;41061;52.822;6.860;2023-08-30T11:31:35;10.60;;;8.98;;
55172;SDS011;41061;52.822;6.860;2023-08-30T11:34:01;12.38;;;9.82;;
55172;SDS011;41061;52.822;6.860;2023-08-30T11:36:28;12.93;;;10.00;;
55172;SDS011;41061;52.822;6.860;2023-08-30T11:38:56;13.82;;;10.18;;
55172;SDS011;41061;52.822;6.860;2023-08-30T11:41:23;12.50;;;9.90;;
55172;SDS011;41061;52.822;6.860;2023-08-30T11:43:50;13.43;;;10.52;;
55172;SDS011;41061;52.822;6.860;2023-08-30T11:46:16;14.35;;;10.95;;
55172;SDS011;41061;52.822;6.860;2023-08-30T11:48:43;15.05;;;11.43;;
55172;SDS011;41061;52.822;6.860;2023-08-30T11:51:10;13.52;;;10.73;;
55172;SDS011;41061;52.822;6.860;2023-08-30T11:53:36;13.43;;;10.85;;
55172;SDS011;41061;52.822;6.860;2023-08-30T11:56:03;13.63;;;11.50;;
55172;SDS011;41061;52.822;6.860;2023-08-30T11:58:34;11.98;;;9.75;;
55172;SDS011;41061;52.822;6.860;2023-08-30T12:01:03;12.13;;;10.77;;
55172;SDS011;41061;52.822;6.860;2023-08-30T12:03:30;15.60;;;10.88;;
55172;SDS011;41061;52.822;6.860;2023-08-30T12:05:57;15.25;;;12.73;;
55172;SDS011;41061;52.822;6.860;2023-08-30T12:10:50;16.52;;;12.35;;
55172;SDS011;41061;52.822;6.860;2023-08-30T12:13:23;15.07;;;13.43;;
55172;SDS011;41061;52.822;6.860;2023-08-30T12:15:52;18.42;;;13.98;;
55172;SDS011;41061;52.822;6.860;2023-08-30T12:18:23;14.68;;;12.73;;
55172;SDS011;41061;52.822;6.860;2023-08-30T12:20:56;12.15;;;10.88;;
55172;SDS011;41061;52.822;6.860;2023-08-30T12:23:29;13.55;;;12.15;;
55172;SDS011;41061;52.822;6.860;2023-08-30T12:26:03;14.48;;;11.57;;
55172;SDS011;41061;52.822;6.860;2023-08-30T12:28:34;13.98;;;11.00;;
55172;SDS011;41061;52.822;6.860;2023-08-30T12:31:01;11.77;;;10.57;;
55172;SDS011;41061;52.822;6.860;2023-08-30T12:33:29;14.77;;;12.00;;
55172;SDS011;41061;52.822;6.860;2023-08-30T12:35:58;12.38;;;10.65;;
55172;SDS011;41061;52.822;6.860;2023-08-30T12:38:24;14.13;;;12.40;;
55172;SDS011;41061;52.822;6.860;2023-08-30T12:40:51;15.05;;;12.13;;
55172;SDS011;41061;52.822;6.860;2023-08-30T12:43:18;15.15;;;10.95;;
55172;SDS011;41061;52.822;6.860;2023-08-30T12:45:48;12.00;;;10.70;;
55172;SDS011;41061;52.822;6.860;2023-08-30T12:48:15;13.30;;;9.98;;
55172;SDS011;41061;52.822;6.860;2023-08-30T12:50:42;12.02;;;9.05;;
55172;SDS011;41061;52.822;6.860;2023-08-30T12:53:08;12.82;;;9.70;;
55172;SDS011;41061;52.822;6.860;2023-08-30T12:55:34;9.93;;;8.63;;
55172;SDS011;41061;52.822;6.860;2023-08-30T12:58:01;10.50;;;9.40;;
55172;SDS011;41061;52.822;6.860;2023-08-30T13:00:27;10.95;;;8.30;;
55172;SDS011;41061;52.822;6.860;2023-08-30T13:02:53;8.48;;;7.57;;
55172;SDS011;41061;52.822;6.860;2023-08-30T13:05:19;7.53;;;6.70;;
55172;SDS011;41061;52.822;6.860;2023-08-30T13:07:46;7.85;;;7.05;;
55172;SDS011;41061;52.822;6.860;2023-08-30T13:10:13;7.80;;;6.55;;
55172;SDS011;41061;52.822;6.860;2023-08-30T13:12:39;7.28;;;6.57;;
55172;SDS011;41061;52.822;6.860;2023-08-30T13:15:05;6.32;;;5.72;;
55172;SDS011;41061;52.822;6.860;2023-08-30T13:17:32;6.35;;;5.60;;
55172;SDS011;41061;52.822;6.860;2023-08-30T13:19:58;6.00;;;5.38;;
55172;SDS011;41061;52.822;6.860;2023-08-30T13:22:25;6.25;;;5.32;;
55172;SDS011;41061;52.822;6.860;2023-08-30T13:24:51;6.60;;;6.00;;
55172;SDS011;41061;52.822;6.860;2023-08-30T13:27:17;6.65;;;5.00;;
55172;SDS011;41061;52.822;6.860;2023-08-30T13:29:43;5.38;;;4.72;;
55172;SDS011;41061;52.822;6.860;2023-08-30T13:32:10;5.50;;;4.82;;
55172;SDS011;41061;52.822;6.860;2023-08-30T13:34:36;5.10;;;4.60;;
55172;SDS011;41061;52.822;6.860;2023-08-30T13:37:03;5.03;;;4.47;;
55172;SDS011;41061;52.822;6.860;2023-08-30T13:39:29;5.03;;;4.03;;
55172;SDS011;41061;52.822;6.860;2023-08-30T13:41:55;5.60;;;4.82;;
55172;SDS011;41061;52.822;6.860;2023-08-30T13:44:21;5.00;;;4.50;;
55172;SDS011;41061;52.822;6.860;2023-08-30T13:46:49;5.22;;;4.72;;
55172;SDS011;41061;52.822;6.860;2023-08-30T13:49:16;4.82;;;4.43;;
55172;SDS011;41061;52.822;6.860;2023-08-30T13:51:43;6.50;;;4.93;;
55172;SDS011;41061;52.822;6.860;2023-08-30T13:54:10;5.95;;;5.10;;
55172;SDS011;41061;52.822;6.860;2023-08-30T13:56:36;5.68;;;5.10;;
55172;SDS011;41061;52.822;6.860;2023-08-30T13:59:06;6.85;;;5.35;;
55172;SDS011;41061;52.822;6.860;2023-08-30T14:01:33;6.18;;;5.57;;
55172;SDS011;41061;52.822;6.860;2023-08-30T14:04:02;6.50;;;5.70;;
55172;SDS011;41061;52.822;6.860;2023-08-30T14:06:30;7.45;;;5.78;;
55172;SDS011;41061;52.822;6.860;2023-08-30T14:08:57;7.45;;;6.68;;
55172;SDS011;41061;52.822;6.860;2023-08-30T14:11:23;7.35;;;6.65;;
55172;SDS011;41061;52.822;6.860;2023-08-30T14:13:49;8.18;;;7.32;;
55172;SDS011;41061;52.822;6.860;2023-08-30T14:16:15;8.95;;;7.40;;
55172;SDS011;41061;52.822;6.860;2023-08-30T14:18:40;11.18;;;8.65;;
55172;SDS011;41061;52.822;6.860;2023-08-30T14:21:07;9.27;;;8.35;;
55172;SDS011;41061;52.822;6.860;2023-08-30T14:23:34;8.50;;;7.70;;
55172;SDS011;41061;52.822;6.860;2023-08-30T14:26:01;7.40;;;6.70;;
55172;SDS011;41061;52.822;6.860;2023-08-30T14:28:37;8.00;;;7.25;;
55172;SDS011;41061;52.822;6.860;2023-08-30T14:31:06;8.57;;;7.65;;
55172;SDS011;41061;52.822;6.860;2023-08-30T14:33:33;6.05;;;5.55;;
55172;SDS011;41061;52.822;6.860;2023-08-30T14:35:59;6.28;;;4.40;;
55172;SDS011;41061;52.822;6.860;2023-08-30T14:38:26;4.80;;;4.38;;
55172;SDS011;41061;52.822;6.860;2023-08-30T14:43:21;3.50;;;3.20;;
55172;SDS011;41061;52.822;6.860;2023-08-30T14:45:46;3.15;;;2.20;;
55172;SDS011;41061;52.822;6.860;2023-08-30T14:48:12;2.20;;;1.83;;